Time;durP1;ratioP1;P1;durP2;ratioP2;P2;SDS_P1;SDS_P2;PMS_P1;PMS_P2;Temp;Humidity;BMP_temperature;BMP_pressure;BME280_temperature;BME280_humidity;BME280_pressure;Samples;Min_cycle;Max_cycle;Signal;HPM_P1;HPM_P2
2022/06/09 00:00:41;;;;;;;15.23;3.45;;;14.90;78.20;;;;;;4993860;28;20478;-89
2022/06/09 00:03:15;;;;;;;19.60;3.85;;;14.90;78.20;;;;;;4993945;28;20480;-89
2022/06/09 00:05:43;;;;;;;16.45;3.35;;;14.90;78.30;;;;;;4991426;28;20054;-88
2022/06/09 00:08:11;;;;;;;18.77;3.42;;;14.90;78.30;;;;;;4990906;28;20054;-88
2022/06/09 00:10:42;;;;;;;21.70;3.80;;;14.90;78.30;;;;;;4987644;28;20503;-89
2022/06/09 00:13:10;;;;;;;15.18;3.35;;;14.90;78.40;;;;;;4977607;28;20485;-88
2022/06/09 00:15:37;;;;;;;22.77;3.97;;;14.90;78.40;;;;;;4993687;28;20073;-90
2022/06/09 00:18:05;;;;;;;17.08;3.63;;;14.90;78.40;;;;;;4994773;28;20047;-89
2022/06/09 00:20:32;;;;;;;20.50;3.80;;;14.90;78.40;;;;;;4974455;28;20050;-89
2022/06/09 00:22:59;;;;;;;20.73;4.97;;;14.90;78.50;;;;;;4990672;28;20097;-89
2022/06/09 00:25:26;;;;;;;18.15;3.42;;;14.90;78.50;;;;;;4993739;28;20387;-89
2022/06/09 00:27:53;;;;;;;18.90;3.78;;;14.90;78.50;;;;;;4992970;28;20047;-88
2022/06/09 00:30:20;;;;;;;15.80;3.42;;;14.90;78.60;;;;;;4994714;28;20061;-89
2022/06/09 00:32:47;;;;;;;17.80;3.15;;;14.90;78.60;;;;;;5006205;28;20054;-89
2022/06/09 00:35:14;;;;;;;15.32;3.55;;;14.90;78.60;;;;;;4991143;28;20481;-89
2022/06/09 00:37:41;;;;;;;23.73;4.93;;;14.90;78.60;;;;;;4974968;28;20042;-87
2022/06/09 00:40:11;;;;;;;22.75;4.38;;;15.00;78.60;;;;;;4977410;28;20046;-90
2022/06/09 00:42:38;;;;;;;23.70;4.78;;;15.00;78.60;;;;;;4976597;28;20501;-89
2022/06/09 00:45:46;;;;;;;23.38;3.97;;;14.90;78.60;;;;;;4992332;28;20062;-91
2022/06/09 00:48:21;;;;;;;22.63;4.55;;;14.90;78.60;;;;;;4950230;28;20147;-90
2022/06/09 00:51:01;;;;;;;21.08;4.40;;;14.90;78.50;;;;;;4933690;29;20500;-90
2022/06/09 00:53:34;;;;;;;21.25;4.10;;;14.90;78.50;;;;;;4934198;29;20055;-89
2022/06/09 00:56:02;;;;;;;21.67;4.30;;;14.90;78.60;;;;;;4949518;29;20051;-89
2022/06/09 00:58:34;;;;;;;22.50;4.57;;;14.90;78.60;;;;;;4933942;29;20059;-89
2022/06/09 01:01:05;;;;;;;23.88;4.55;;;14.90;78.60;;;;;;4933925;29;20102;-90
2022/06/09 01:03:56;;;;;;;21.42;4.10;;;14.90;78.60;;;;;;4934131;29;20048;-90
2022/06/09 01:06:31;;;;;;;16.42;4.10;;;14.90;78.70;;;;;;4930152;29;20063;-91
2022/06/09 01:09:29;;;;;;;20.45;4.05;;;14.90;78.70;;;;;;4949154;29;20067;-89
2022/06/09 01:11:57;;;;;;;24.25;4.40;;;14.80;78.70;;;;;;4893391;29;20051;-90
2022/06/09 01:14:27;;;;;;;19.27;3.95;;;14.80;78.70;;;;;;4926351;29;20052;-90
2022/06/09 01:17:15;;;;;;;18.58;4.38;;;14.80;78.80;;;;;;4933309;29;20039;-89
2022/06/09 01:20:01;;;;;;;21.13;4.35;;;14.80;78.80;;;;;;4918028;29;20095;-89
2022/06/09 01:22:53;;;;;;;20.60;4.65;;;14.80;78.80;;;;;;4969271;28;20042;-88
2022/06/09 01:25:29;;;;;;;19.75;4.25;;;14.70;78.80;;;;;;4975616;28;20054;-90
2022/06/09 01:28:05;;;;;;;17.48;3.88;;;14.70;78.90;;;;;;4973784;28;20047;-89
2022/06/09 01:30:50;;;;;;;19.08;4.63;;;14.70;78.90;;;;;;4957449;28;20054;-90
2022/06/09 01:33:41;;;;;;;20.38;4.57;;;14.60;78.90;;;;;;4976661;28;20058;-89
2022/06/09 01:36:42;;;;;;;22.60;4.95;;;14.60;78.90;;;;;;4974239;28;20054;-89
2022/06/09 01:39:09;;;;;;;19.48;4.10;;;14.60;78.90;;;;;;4991976;28;20509;-90
2022/06/09 01:41:44;;;;;;;21.85;4.93;;;14.60;78.90;;;;;;4975909;28;20050;-88
2022/06/09 01:44:11;;;;;;;16.90;4.43;;;14.60;79.00;;;;;;4992097;28;20508;-91
2022/06/09 01:46:38;;;;;;;18.50;4.35;;;14.60;79.00;;;;;;4974774;28;20450;-90
2022/06/09 01:49:07;;;;;;;21.88;3.65;;;14.50;79.00;;;;;;4975527;28;20050;-89
2022/06/09 01:51:38;;;;;;;24.80;4.20;;;14.50;79.00;;;;;;4976084;28;20058;-89
2022/06/09 01:54:09;;;;;;;20.08;4.43;;;14.50;79.00;;;;;;4993447;28;20053;-89
2022/06/09 01:56:45;;;;;;;19.27;5.07;;;14.50;79.10;;;;;;4975443;28;20097;-89
2022/06/09 01:59:15;;;;;;;21.98;4.38;;;14.50;79.10;;;;;;4975923;28;20072;-89
2022/06/09 02:01:50;;;;;;;22.13;4.35;;;14.50;79.10;;;;;;4990411;28;20085;-90
2022/06/09 02:04:23;;;;;;;21.65;4.75;;;14.40;79.10;;;;;;4992415;28;20046;-89
2022/06/09 02:06:52;;;;;;;20.92;4.55;;;14.40;79.20;;;;;;4991761;28;20506;-89
2022/06/09 02:09:22;;;;;;;25.98;4.82;;;14.40;79.10;;;;;;4993235;28;20451;-90
2022/06/09 02:11:52;;;;;;;21.35;4.22;;;14.40;79.20;;;;;;4975847;28;20132;-89
2022/06/09 02:14:21;;;;;;;18.55;4.03;;;14.40;79.20;;;;;;4974305;28;20046;-89
2022/06/09 02:16:48;;;;;;;26.08;4.85;;;14.40;79.20;;;;;;4972042;28;20078;-89
2022/06/09 02:19:16;;;;;;;21.10;4.50;;;14.40;79.20;;;;;;4991741;28;20050;-89
2022/06/09 02:21:43;;;;;;;17.77;3.83;;;14.40;79.20;;;;;;4991281;28;20472;-88
2022/06/09 02:24:10;;;;;;;16.05;3.63;;;14.40;79.20;;;;;;4992987;28;20101;-88
2022/06/09 02:26:37;;;;;;;19.08;4.28;;;14.40;79.20;;;;;;4972606;28;20533;-89
2022/06/09 02:29:04;;;;;;;22.02;4.03;;;14.40;79.20;;;;;;4991278;28;20042;-89
2022/06/09 02:31:31;;;;;;;21.60;4.90;;;14.40;79.20;;;;;;4991024;28;20046;-90
2022/06/09 02:33:58;;;;;;;26.85;4.30;;;14.30;79.20;;;;;;4972044;28;20038;-88
2022/06/09 02:36:25;;;;;;;20.65;4.85;;;14.30;79.20;;;;;;4993094;28;20058;-89
2022/06/09 02:38:52;;;;;;;18.27;4.28;;;14.30;79.20;;;;;;4991426;28;20057;-89
2022/06/09 02:41:20;;;;;;;22.65;4.20;;;14.30;79.20;;;;;;4990494;28;20061;-89
2022/06/09 02:43:47;;;;;;;18.63;4.00;;;14.30;79.20;;;;;;4971509;28;20047;-89
2022/06/09 02:46:14;;;;;;;18.83;4.70;;;14.30;79.20;;;;;;4989646;28;20121;-89
2022/06/09 02:48:41;;;;;;;23.05;4.40;;;14.30;79.20;;;;;;4991419;28;20533;-89
2022/06/09 02:51:14;;;;;;;24.75;4.85;;;14.20;79.20;;;;;;4975556;28;20078;-89
2022/06/09 02:53:41;;;;;;;17.58;4.05;;;14.30;79.20;;;;;;4989996;28;20054;-89
2022/06/09 02:56:08;;;;;;;19.73;4.47;;;14.20;79.20;;;;;;4991517;28;20050;-89
2022/06/09 02:58:35;;;;;;;21.65;4.85;;;14.20;79.20;;;;;;4975335;28;20050;-89
2022/06/09 03:01:02;;;;;;;19.67;4.05;;;14.20;79.20;;;;;;4972554;28;20045;-89
2022/06/09 03:03:29;;;;;;;20.10;4.20;;;14.20;79.20;;;;;;4974505;28;20101;-89
2022/06/09 03:05:56;;;;;;;16.50;3.58;;;14.20;79.20;;;;;;4974039;28;20081;-89
2022/06/09 03:08:23;;;;;;;20.88;4.68;;;14.20;79.20;;;;;;4960540;28;20062;-89
2022/06/09 03:10:50;;;;;;;18.27;4.00;;;14.10;79.20;;;;;;4966556;28;20050;-89
2022/06/09 03:13:17;;;;;;;19.73;4.18;;;14.10;79.30;;;;;;4975603;28;20054;-90
2022/06/09 03:15:47;;;;;;;17.70;3.85;;;14.10;79.30;;;;;;4994010;28;20104;-90
2022/06/09 03:18:15;;;;;;;20.73;4.28;;;14.10;79.30;;;;;;4978574;28;20469;-90
2022/06/09 03:20:42;;;;;;;15.90;3.58;;;14.10;79.30;;;;;;4977808;28;20493;-90
2022/06/09 03:23:09;;;;;;;17.58;3.90;;;14.10;79.30;;;;;;4978461;28;20504;-89
2022/06/09 03:25:37;;;;;;;20.25;4.63;;;14.10;79.30;;;;;;4994575;28;20138;-91
2022/06/09 03:28:05;;;;;;;18.02;4.10;;;14.10;79.30;;;;;;4995747;28;20461;-90
2022/06/09 03:30:32;;;;;;;19.58;4.13;;;14.00;79.30;;;;;;4995304;28;20049;-90
2022/06/09 03:33:00;;;;;;;17.73;3.78;;;14.00;79.40;;;;;;4976069;28;20200;-90
2022/06/09 03:35:28;;;;;;;22.83;4.45;;;14.00;79.40;;;;;;4978608;28;20117;-89
2022/06/09 03:37:56;;;;;;;20.80;4.43;;;14.00;79.40;;;;;;4987590;28;20050;-89
2022/06/09 03:40:24;;;;;;;19.33;4.22;;;14.00;79.50;;;;;;4994919;28;20529;-89
2022/06/09 03:42:52;;;;;;;19.67;4.88;;;14.00;79.50;;;;;;4995665;28;20514;-88
2022/06/09 03:45:19;;;;;;;16.08;4.28;;;14.00;79.60;;;;;;4978282;28;20054;-89
2022/06/09 03:47:45;;;;;;;24.75;5.82;;;14.00;79.60;;;;;;4976955;28;20062;-89
2022/06/09 03:50:17;;;;;;;20.50;4.25;;;14.00;79.70;;;;;;4995020;28;20101;-90
2022/06/09 03:52:44;;;;;;;16.50;4.47;;;14.00;79.80;;;;;;4994767;28;20042;-91
2022/06/09 03:55:12;;;;;;;30.17;4.95;;;14.00;79.80;;;;;;4977681;28;20057;-90
2022/06/09 03:57:39;;;;;;;16.02;4.07;;;14.00;79.80;;;;;;4993915;28;20069;-91
2022/06/09 04:00:08;;;;;;;19.40;4.78;;;14.00;79.90;;;;;;4959093;28;20046;-90
2022/06/09 04:02:35;;;;;;;23.10;4.70;;;14.00;79.90;;;;;;4975456;28;20062;-89
2022/06/09 04:05:02;;;;;;;24.65;4.80;;;14.00;80.00;;;;;;4977809;28;20051;-89
2022/06/09 04:07:29;;;;;;;25.98;4.75;;;14.00;80.00;;;;;;4977858;28;20042;-89
2022/06/09 04:09:56;;;;;;;20.55;3.78;;;14.00;80.00;;;;;;4974285;28;20051;-89
2022/06/09 04:12:24;;;;;;;20.65;4.38;;;14.00;80.10;;;;;;4974163;28;20081;-90
2022/06/09 04:14:51;;;;;;;21.77;4.38;;;14.00;80.10;;;;;;4991911;28;20050;-89
2022/06/09 04:17:18;;;;;;;16.95;3.80;;;14.00;80.20;;;;;;4978022;28;20182;-89
2022/06/09 04:19:45;;;;;;;17.42;4.18;;;14.00;80.20;;;;;;4977597;28;20042;-89
2022/06/09 04:22:12;;;;;;;19.27;4.53;;;14.00;80.20;;;;;;4974289;28;20047;-88
2022/06/09 04:24:39;;;;;;;18.80;4.68;;;14.00;80.20;;;;;;4992892;28;20050;-90
2022/06/09 04:27:06;;;;;;;16.85;3.90;;;14.00;80.20;;;;;;4993013;28;20058;-89
2022/06/09 04:29:33;;;;;;;17.77;4.05;;;14.00;80.20;;;;;;4994077;28;20054;-88
2022/06/09 04:32:00;;;;;;;20.52;4.57;;;14.00;80.20;;;;;;4991427;28;20046;-90
2022/06/09 04:34:27;;;;;;;23.00;4.30;;;14.00;80.20;;;;;;4977205;28;20050;-90
2022/06/09 04:36:54;;;;;;;20.00;3.50;;;14.00;80.10;;;;;;4993329;28;20050;-89
2022/06/09 04:39:21;;;;;;;27.02;4.45;;;14.00;80.10;;;;;;4977670;28;20054;-89
2022/06/09 04:41:48;;;;;;;23.63;3.85;;;14.00;80.10;;;;;;4977405;28;20121;-90
2022/06/09 04:44:15;;;;;;;16.38;4.10;;;14.00;80.20;;;;;;4977054;28;20066;-89
2022/06/09 04:46:42;;;;;;;17.73;3.95;;;14.00;80.20;;;;;;4991867;28;20058;-89
2022/06/09 04:49:09;;;;;;;22.27;3.95;;;14.00;80.20;;;;;;4989088;28;20053;-90
2022/06/09 04:51:36;;;;;;;17.20;3.97;;;14.00;80.20;;;;;;4976729;28;20125;-88
2022/06/09 04:54:03;;;;;;;21.13;3.92;;;14.00;80.20;;;;;;4975517;28;20376;-89
2022/06/09 04:56:30;;;;;;;18.60;3.67;;;14.00;80.20;;;;;;4970394;28;20081;-90
2022/06/09 04:58:57;;;;;;;14.80;3.95;;;14.00;80.20;;;;;;4973178;28;20043;-89
2022/06/09 05:01:28;;;;;;;17.38;3.45;;;14.00;80.20;;;;;;4977146;28;20069;-89
2022/06/09 05:03:56;;;;;;;18.02;4.25;;;14.00;80.20;;;;;;4958338;28;20117;-90
2022/06/09 05:06:25;;;;;;;18.40;3.88;;;14.00;80.20;;;;;;4990502;28;20069;-90
2022/06/09 05:08:53;;;;;;;19.80;4.20;;;14.00;80.30;;;;;;4994589;28;20046;-89
2022/06/09 05:11:21;;;;;;;22.02;4.25;;;14.00;80.30;;;;;;4979739;28;20395;-89
2022/06/09 05:13:48;;;;;;;13.85;3.10;;;14.00;80.30;;;;;;4964842;28;20609;-90
2022/06/09 05:16:17;;;;;;;20.55;3.72;;;14.00;80.30;;;;;;5004705;28;20061;-89
2022/06/09 05:18:44;;;;;;;13.55;3.20;;;14.00;80.40;;;;;;4975041;28;20144;-89
2022/06/09 05:21:11;;;;;;;16.60;3.38;;;14.00;80.40;;;;;;4992014;28;20050;-91
2022/06/09 05:23:38;;;;;;;20.38;4.03;;;14.00;80.40;;;;;;4993341;28;20104;-90
2022/06/09 05:26:06;;;;;;;14.18;3.33;;;14.10;80.40;;;;;;5004799;28;20049;-90
2022/06/09 05:28:34;;;;;;;13.80;3.55;;;14.10;80.40;;;;;;4991688;28;20042;-89
2022/06/09 05:31:01;;;;;;;18.63;3.90;;;14.10;80.50;;;;;;4993694;28;20057;-89
2022/06/09 05:33:29;;;;;;;14.40;3.58;;;14.10;80.50;;;;;;4976065;28;20046;-89
2022/06/09 05:35:56;;;;;;;13.05;3.08;;;14.10;80.50;;;;;;4973926;28;20050;-89
2022/06/09 05:46:46;;;;;;;17.70;3.53;;;14.20;80.50;;;;;;4989077;28;20178;-89
2022/06/09 05:49:18;;;;;;;20.58;3.58;;;14.20;80.50;;;;;;4990122;28;20042;-92
2022/06/09 05:51:49;;;;;;;18.30;3.55;;;14.20;80.60;;;;;;4975083;28;20050;-86
2022/06/09 05:54:17;;;;;;;20.33;3.67;;;14.30;80.60;;;;;;4971363;28;20056;-90
2022/06/09 05:56:44;;;;;;;15.75;4.00;;;14.30;80.60;;;;;;4975443;28;20054;-89
2022/06/09 05:59:11;;;;;;;16.00;3.38;;;14.30;80.60;;;;;;4975687;28;20039;-92
2022/06/09 06:01:38;;;;;;;13.80;3.28;;;14.30;80.60;;;;;;4976303;28;20130;-92
2022/06/09 06:04:07;;;;;;;17.00;3.45;;;14.40;80.60;;;;;;4976230;28;20494;-90
2022/06/09 06:06:34;;;;;;;17.75;3.65;;;14.40;80.50;;;;;;4992997;28;20065;-90
2022/06/09 06:09:10;;;;;;;;;;;14.40;80.50;;;;;;4977061;28;20054;-90
2022/06/09 06:11:38;;;;;;;14.18;3.58;;;14.40;80.50;;;;;;5003779;28;19922;-89
2022/06/09 06:14:08;;;;;;;16.95;3.60;;;14.40;80.50;;;;;;4975299;28;20104;-88
2022/06/09 06:16:36;;;;;;;15.52;3.03;;;14.40;80.50;;;;;;4988773;28;20112;-91
2022/06/09 06:19:06;;;;;;;19.77;3.60;;;14.40;80.60;;;;;;4989203;28;20070;-89
2022/06/09 06:21:34;;;;;;;15.65;3.28;;;14.50;80.60;;;;;;4990590;28;20054;-90
2022/06/09 06:24:01;;;;;;;19.15;3.63;;;14.50;80.70;;;;;;4992737;28;20051;-89
2022/06/09 06:26:28;;;;;;;16.92;3.78;;;14.50;80.70;;;;;;4973159;28;20054;-89
2022/06/09 06:28:55;;;;;;;20.33;3.33;;;14.50;80.70;;;;;;4991252;28;20050;-89
2022/06/09 06:31:22;;;;;;;13.18;3.28;;;14.60;80.70;;;;;;4991537;28;20046;-90
2022/06/09 06:33:49;;;;;;;20.30;4.00;;;14.60;80.70;;;;;;4989562;28;20054;-89
2022/06/09 06:36:17;;;;;;;17.30;3.40;;;14.70;80.70;;;;;;4991282;28;20057;-88
2022/06/09 06:38:44;;;;;;;16.45;3.55;;;14.70;80.70;;;;;;4989266;28;20054;-90
2022/06/09 06:41:12;;;;;;;17.17;3.38;;;14.80;80.60;;;;;;4974602;28;20050;-89
2022/06/09 06:43:46;;;;;;;17.83;3.50;;;14.90;80.60;;;;;;4990466;28;20043;-89
2022/06/09 06:46:14;;;;;;;19.13;3.58;;;14.90;80.60;;;;;;4991018;28;20080;-88
2022/06/09 06:48:42;;;;;;;20.02;3.92;;;14.90;80.60;;;;;;4995376;28;20042;-88
2022/06/09 06:51:09;;;;;;;18.73;3.83;;;14.90;80.50;;;;;;4994458;28;20054;-88
2022/06/09 06:53:38;;;;;;;18.25;3.55;;;15.00;80.50;;;;;;4992761;28;20050;-89
2022/06/09 06:56:06;;;;;;;15.82;3.25;;;15.00;80.40;;;;;;4978499;28;20097;-90
2022/06/09 06:58:33;;;;;;;18.08;3.33;;;15.10;80.40;;;;;;4995491;28;20411;-88
2022/06/09 07:01:02;;;;;;;18.83;3.15;;;15.10;80.30;;;;;;4975475;28;20554;-89
2022/06/09 07:03:29;;;;;;;21.70;3.75;;;15.20;80.30;;;;;;4995362;28;20494;-90
2022/06/09 07:06:02;;;;;;;20.15;4.22;;;15.20;80.20;;;;;;4995191;28;20054;-90
2022/06/09 07:08:30;;;;;;;22.92;4.10;;;15.20;80.10;;;;;;4995556;28;20418;-90
2022/06/09 07:10:57;;;;;;;21.23;3.67;;;15.30;80.10;;;;;;4989023;28;20050;-92
2022/06/09 07:13:24;;;;;;;22.50;4.13;;;15.30;80.00;;;;;;4992831;28;20137;-90
2022/06/09 07:15:52;;;;;;;16.45;3.72;;;15.40;80.00;;;;;;4977521;28;20051;-90
2022/06/09 07:18:26;;;;;;;18.88;3.55;;;15.40;79.90;;;;;;4988684;28;20046;-90
2022/06/09 07:20:53;;;;;;;21.75;4.07;;;15.40;79.90;;;;;;4995831;28;20046;-90
2022/06/09 07:23:22;;;;;;;25.70;3.80;;;15.40;79.80;;;;;;4977970;28;20050;-90
2022/06/09 07:25:49;;;;;;;20.05;3.50;;;15.50;79.80;;;;;;4987799;28;20466;-89
2022/06/09 07:28:16;;;;;;;19.40;3.90;;;15.60;79.70;;;;;;4993503;28;20058;-91
2022/06/09 07:30:44;;;;;;;22.02;3.78;;;15.60;79.60;;;;;;4977940;28;20070;-89
2022/06/09 07:33:12;;;;;;;13.02;3.15;;;15.70;79.60;;;;;;4959447;28;20059;-90
2022/06/09 07:35:40;;;;;;;14.50;3.83;;;15.70;79.50;;;;;;4991262;28;20052;-89
2022/06/09 07:38:10;;;;;;;14.80;2.97;;;15.90;79.40;;;;;;4971036;28;20046;-89
2022/06/09 07:40:40;;;;;;;20.27;3.53;;;15.90;79.30;;;;;;4985512;28;20077;-92
2022/06/09 07:43:07;;;;;;;17.40;3.47;;;15.90;79.20;;;;;;4996158;28;20054;-94
2022/06/09 07:45:37;;;;;;;18.75;3.45;;;16.00;79.00;;;;;;4994701;28;20046;-93
2022/06/09 07:48:05;;;;;;;12.38;3.17;;;16.10;78.80;;;;;;4989104;28;20089;-92
2022/06/09 07:50:34;;;;;;;12.38;3.17;;;16.20;78.60;;;;;;4989037;28;20046;-91
2022/06/09 07:53:02;;;;;;;13.60;3.30;;;16.30;78.50;;;;;;4994859;28;20068;-91
2022/06/09 07:55:30;;;;;;;15.98;3.42;;;16.30;78.40;;;;;;4995643;28;20384;-92
2022/06/09 07:57:57;;;;;;;15.45;3.53;;;16.40;78.30;;;;;;4973933;28;20055;-91
2022/06/09 08:00:24;;;;;;;12.63;3.25;;;16.40;78.10;;;;;;4973907;28;20042;-90
2022/06/09 08:02:52;;;;;;;15.15;3.28;;;16.50;78.00;;;;;;4973093;28;20050;-91
2022/06/09 08:05:22;;;;;;;15.48;3.05;;;16.60;77.90;;;;;;4982494;28;20050;-89
2022/06/09 08:07:49;;;;;;;16.33;3.30;;;16.60;77.80;;;;;;4993995;28;20061;-91
2022/06/09 08:10:23;;;;;;;10.80;3.17;;;16.70;77.60;;;;;;4990079;28;20050;-90
2022/06/09 08:12:53;;;;;;;10.45;3.03;;;16.80;77.50;;;;;;4961820;28;20050;-92
2022/06/09 08:15:21;;;;;;;16.88;3.33;;;16.90;77.30;;;;;;4995553;28;20478;-90
2022/06/09 08:17:48;;;;;;;10.85;3.03;;;16.90;77.20;;;;;;4995171;28;20057;-90
2022/06/09 08:20:15;;;;;;;13.30;3.08;;;17.00;77.00;;;;;;4992835;28;20410;-93
2022/06/09 08:23:04;;;;;;;16.77;2.65;;;17.10;76.90;;;;;;5008338;28;20037;-91
2022/06/09 08:25:33;;;;;;;16.27;3.30;;;17.20;76.70;;;;;;4995848;28;20050;-91
2022/06/09 08:28:00;;;;;;;13.68;3.03;;;17.30;76.60;;;;;;4994704;28;20047;-91
2022/06/09 08:30:26;;;;;;;14.10;3.00;;;17.40;76.40;;;;;;4994891;28;20096;-90
2022/06/09 08:32:53;;;;;;;15.55;3.22;;;17.40;76.20;;;;;;4987129;28;20047;-92
2022/06/09 08:35:20;;;;;;;15.35;3.83;;;17.40;76.00;;;;;;4987795;28;20511;-92
2022/06/09 08:37:50;;;;;;;14.45;3.13;;;17.50;75.80;;;;;;4992985;28;20100;-91
2022/06/09 08:40:23;;;;;;;22.02;3.53;;;17.60;75.60;;;;;;5003652;28;20487;-92
2022/06/09 08:43:32;;;;;;;10.77;2.97;;;17.70;75.40;;;;;;4975884;28;20537;-90
2022/06/09 08:46:18;;;;;;;17.27;3.40;;;17.70;75.20;;;;;;4990607;28;20062;-91
2022/06/09 08:48:47;;;;;;;17.58;3.17;;;17.80;75.10;;;;;;4977243;28;20138;-91
2022/06/09 08:51:23;;;;;;;12.50;3.17;;;17.90;74.90;;;;;;4993850;28;20124;-91
2022/06/09 08:54:04;;;;;;;14.63;3.00;;;17.90;74.60;;;;;;5010169;28;20124;-92
2022/06/09 08:56:32;;;;;;;16.88;3.05;;;17.90;74.40;;;;;;4977689;28;20065;-93
2022/06/09 08:59:10;;;;;;;14.13;2.92;;;18.00;74.20;;;;;;4969982;28;20042;-91
2022/06/09 09:01:47;;;;;;;12.98;3.10;;;18.10;74.10;;;;;;4967182;28;20051;-92
2022/06/09 09:04:23;;;;;;;15.45;3.00;;;18.20;73.90;;;;;;4965254;28;20055;-93
2022/06/09 09:07:11;;;;;;;12.82;2.83;;;18.20;73.80;;;;;;4972298;28;20109;-92
2022/06/09 09:09:39;;;;;;;12.65;2.58;;;18.30;73.60;;;;;;4991169;28;20046;-92
2022/06/09 09:12:24;;;;;;;16.10;3.30;;;18.30;73.50;;;;;;4971344;28;20063;-93
2022/06/09 09:15:10;;;;;;;12.93;2.70;;;18.40;73.30;;;;;;4978288;28;20050;-94
2022/06/09 09:18:08;;;;;;;14.00;2.63;;;18.40;72.90;;;;;;4968803;28;20051;-92
2022/06/09 09:21:01;;;;;;;11.43;3.17;;;18.50;72.70;;;;;;4977788;28;20049;-94
2022/06/09 09:23:38;;;;;;;10.73;3.00;;;18.50;72.50;;;;;;4974370;28;20061;-94
2022/06/09 09:26:17;;;;;;;9.45;2.30;;;18.60;72.40;;;;;;4972937;28;20050;-94
2022/06/09 09:28:50;;;;;;;10.05;2.25;;;18.60;72.30;;;;;;4952224;28;20054;-92
2022/06/09 09:31:46;;;;;;;13.55;3.38;;;18.60;72.20;;;;;;4975131;28;20055;-93
2022/06/09 09:34:34;;;;;;;12.52;3.22;;;18.70;72.10;;;;;;4975119;28;20687;-92
2022/06/09 09:37:16;;;;;;;11.80;2.45;;;18.80;72.10;;;;;;4975799;28;20050;-95
2022/06/09 09:39:54;;;;;;;14.93;2.53;;;18.90;71.90;;;;;;4971007;28;20062;-95
2022/06/09 09:42:25;;;;;;;13.13;2.72;;;18.90;71.80;;;;;;4964165;28;20074;-95
2022/06/09 09:45:11;;;;;;;10.60;2.67;;;19.00;71.70;;;;;;4965172;28;20054;-95
2022/06/09 09:47:49;;;;;;;8.68;2.30;;;19.10;71.50;;;;;;4973009;28;20054;-94
2022/06/09 09:50:25;;;;;;;8.95;2.40;;;19.20;71.40;;;;;;4972775;28;20054;-96
2022/06/09 09:53:19;;;;;;;10.57;2.47;;;19.30;71.20;;;;;;4979999;28;20053;-95
2022/06/09 09:55:56;;;;;;;;;;;19.40;71.00;;;;;;4971743;28;20059;-94
2022/06/09 09:58:28;;;;;;;16.83;2.80;;;19.40;70.80;;;;;;4957698;29;19930;-96
2022/06/09 10:01:00;;;;;;;10.83;2.37;;;19.50;70.70;;;;;;4957396;29;20472;-94
2022/06/09 10:09:45;;;;;;;11.43;2.55;;;19.90;69.90;;;;;;4957098;29;20059;-95
2022/06/09 10:12:32;;;;;;;9.88;2.05;;;20.00;69.70;;;;;;4956012;29;20062;-93
2022/06/09 10:15:21;;;;;;;16.35;3.50;;;20.00;69.50;;;;;;4957510;29;20403;-94
2022/06/09 10:18:21;;;;;;;10.05;2.75;;;20.20;69.20;;;;;;4977694;28;20113;-95
2022/06/09 10:21:12;;;;;;;;;;;20.30;69.00;;;;;;4977492;28;20033;-94
2022/06/09 10:24:05;;;;;;;13.32;2.80;;;20.40;68.80;;;;;;4965632;28;19926;-95
2022/06/09 10:26:54;;;;;;;10.70;2.50;;;20.40;68.60;;;;;;4965238;28;20057;-93
2022/06/09 10:29:39;;;;;;;16.63;3.10;;;20.50;68.20;;;;;;4962609;28;20047;-93
2022/06/09 10:32:21;;;;;;;10.50;2.47;;;20.60;67.90;;;;;;4963318;28;20568;-94
2022/06/09 10:35:00;;;;;;;11.13;2.45;;;20.70;67.60;;;;;;4956977;28;20408;-96
2022/06/09 10:37:45;;;;;;;9.95;2.25;;;20.80;67.50;;;;;;4960695;28;20058;-94
2022/06/09 10:40:44;;;;;;;11.30;2.72;;;20.80;67.20;;;;;;4970454;28;20051;-95
2022/06/09 10:43:46;;;;;;;9.95;2.03;;;20.90;66.90;;;;;;4957347;29;20062;-95
2022/06/09 10:46:42;;;;;;;13.10;2.70;;;20.90;66.70;;;;;;4956169;29;20083;-96
2022/06/09 10:55:25;;;;;;;15.18;2.53;;;21.10;66.20;;;;;;5039060;28;20056;-94
2022/06/09 10:58:11;;;;;;;11.30;2.45;;;21.10;66.00;;;;;;5036955;28;20436;-92
2022/06/09 11:00:48;;;;;;;10.32;2.33;;;21.10;65.70;;;;;;5033896;28;20049;-95
2022/06/09 11:03:30;;;;;;;10.52;2.50;;;21.20;65.60;;;;;;5033124;28;20108;-93
2022/06/09 11:06:09;;;;;;;9.07;2.50;;;21.20;65.40;;;;;;5015959;28;20152;-94
2022/06/09 11:09:07;;;;;;;10.52;2.88;;;21.30;65.30;;;;;;5035451;28;20568;-93
2022/06/09 11:12:06;;;;;;;13.43;2.60;;;21.30;65.20;;;;;;5022571;28;20054;-95
2022/06/09 11:15:06;;;;;;;13.30;2.90;;;21.40;64.90;;;;;;5018930;28;20057;-92
2022/06/09 11:17:52;;;;;;;13.88;2.60;;;21.40;64.70;;;;;;4959413;28;20051;-93
2022/06/09 11:20:25;;;;;;;12.05;2.63;;;21.40;64.50;;;;;;4974650;28;20154;-92
2022/06/09 11:23:19;;;;;;;12.57;2.35;;;21.50;64.30;;;;;;4956616;28;20047;-94
2022/06/09 11:25:55;;;;;;;9.77;2.03;;;21.50;64.10;;;;;;4974091;28;20043;-91
2022/06/09 11:28:34;;;;;;;13.52;2.90;;;21.50;64.10;;;;;;4956727;28;20058;-95
2022/06/09 11:31:12;;;;;;;9.43;2.70;;;21.60;64.00;;;;;;4973417;28;20046;-94
2022/06/09 11:33:42;;;;;;;11.80;2.25;;;21.60;63.90;;;;;;4975606;28;20054;-94
2022/06/09 11:36:42;;;;;;;15.07;2.65;;;21.70;63.80;;;;;;4976900;28;20051;-91
2022/06/09 11:39:30;;;;;;;10.27;2.42;;;21.70;63.50;;;;;;4957300;29;20058;-93
2022/06/09 11:42:04;;;;;;;9.73;2.60;;;21.80;63.30;;;;;;4956681;29;20066;-96
2022/06/09 11:44:35;;;;;;;;;;;21.90;63.20;;;;;;4972709;28;20054;-93
2022/06/09 11:47:09;;;;;;;13.02;2.85;;;21.90;63.10;;;;;;4959890;28;20351;-93
2022/06/09 11:49:59;;;;;;;9.63;2.20;;;21.90;63.10;;;;;;4959951;28;20538;-93
2022/06/09 11:52:31;;;;;;;10.00;2.67;;;21.90;63.00;;;;;;4974008;28;20049;-93
2022/06/09 11:55:03;;;;;;;11.00;2.67;;;22.00;62.90;;;;;;5036184;28;20054;-93
2022/06/09 11:57:48;;;;;;;9.43;2.63;;;22.00;62.80;;;;;;5035737;28;20107;-94
2022/06/09 12:00:27;;;;;;;11.10;2.50;;;22.10;62.60;;;;;;5015687;28;20053;-92
2022/06/09 12:03:09;;;;;;;8.98;2.78;;;22.10;62.50;;;;;;5033907;28;20060;-91
2022/06/09 12:05:55;;;;;;;9.77;2.28;;;22.20;62.40;;;;;;5017141;28;20133;-91
2022/06/09 12:08:44;;;;;;;12.68;2.35;;;22.20;62.20;;;;;;5015464;28;20062;-92
2022/06/09 12:11:18;;;;;;;13.63;2.72;;;22.30;62.10;;;;;;5015405;28;20062;-92
2022/06/09 12:13:44;;;;;;;;;;;22.30;62.00;;;;;;5022406;28;20045;-91
2022/06/09 12:16:26;;;;;;;15.45;2.70;;;22.40;61.90;;;;;;5035555;28;20389;-93
2022/06/09 12:19:44;;;;;;;13.23;2.72;;;22.40;61.70;;;;;;5033167;28;20103;-90
2022/06/09 12:22:45;;;;;;;14.13;2.92;;;22.40;61.50;;;;;;4994092;28;20046;-92
2022/06/09 12:25:16;;;;;;;9.90;2.13;;;22.40;61.20;;;;;;4960500;28;20050;-93
2022/06/09 12:27:45;;;;;;;11.20;2.33;;;22.40;61.00;;;;;;4973120;28;20094;-90
2022/06/09 12:30:26;;;;;;;11.68;2.35;;;22.40;60.90;;;;;;4973569;28;20047;-94
2022/06/09 12:33:11;;;;;;;8.63;2.38;;;22.40;60.80;;;;;;4974261;28;20154;-91
2022/06/09 12:35:54;;;;;;;10.85;2.30;;;22.40;60.80;;;;;;4958535;28;20075;-89
2022/06/09 12:38:26;;;;;;;9.55;2.03;;;22.40;60.90;;;;;;4970091;28;20055;-93
2022/06/09 12:40:57;;;;;;;9.00;2.42;;;22.40;60.90;;;;;;4973978;28;20051;-91
2022/06/09 12:43:35;;;;;;;12.85;2.40;;;22.40;60.90;;;;;;4973575;28;20510;-91
2022/06/09 12:46:16;;;;;;;7.25;2.08;;;22.40;60.90;;;;;;4969647;28;20039;-94
2022/06/09 12:48:44;;;;;;;9.23;2.17;;;22.40;60.80;;;;;;4939874;28;20488;-92
2022/06/09 12:51:31;;;;;;;9.43;1.75;;;22.40;60.70;;;;;;4974152;28;20051;-91
2022/06/09 12:54:00;;;;;;;8.27;1.85;;;22.50;60.60;;;;;;5008867;28;20054;-93
2022/06/09 12:56:44;;;;;;;11.00;2.50;;;22.50;60.60;;;;;;5014622;28;20053;-93
2022/06/09 12:59:20;;;;;;;10.05;2.60;;;22.60;60.40;;;;;;5018946;28;20046;-94
2022/06/09 13:02:18;;;;;;;10.15;1.70;;;22.60;60.30;;;;;;5025779;28;20107;-93
2022/06/09 13:05:16;;;;;;;9.95;2.00;;;22.60;60.20;;;;;;5022532;28;20050;-94
2022/06/09 13:08:11;;;;;;;10.50;2.47;;;22.60;60.00;;;;;;5025180;28;20068;-93
2022/06/09 13:10:43;;;;;;;23.40;3.50;;;22.60;59.90;;;;;;5025074;28;20054;-90
2022/06/09 13:13:37;;;;;;;12.77;2.50;;;22.60;59.80;;;;;;5015004;28;20045;-93
2022/06/09 13:16:22;;;;;;;5.75;1.60;;;22.60;59.40;;;;;;5014920;28;20052;-92
2022/06/09 13:18:56;;;;;;;8.75;2.08;;;22.60;59.40;;;;;;5033103;28;20052;-91
2022/06/09 13:21:32;;;;;;;12.15;2.22;;;22.60;59.30;;;;;;5034213;28;20045;-92
2022/06/09 13:24:02;;;;;;;9.77;2.10;;;22.60;59.30;;;;;;5030881;28;20049;-89
2022/06/09 13:26:38;;;;;;;8.50;2.25;;;22.50;59.20;;;;;;5031028;28;20042;-90
2022/06/09 13:29:15;;;;;;;9.05;2.13;;;22.50;59.20;;;;;;5032697;28;20050;-92
2022/06/09 13:31:45;;;;;;;8.02;1.95;;;22.40;59.30;;;;;;5025109;28;20107;-90